createdAt,value
2022-10-18T00:00:06.456Z,70.38
2022-10-18T00:02:33.476Z,70.62
2022-10-18T00:05:00.303Z,70.55
2022-10-18T00:07:26.987Z,70.43
2022-10-18T00:09:53.732Z,70.59
2022-10-18T00:12:20.489Z,70.65
2022-10-18T00:14:50.895Z,70.66
2022-10-18T00:17:17.967Z,70.74
2022-10-18T00:19:45.173Z,70.46
2022-10-18T00:22:11.857Z,70.31
2022-10-18T00:24:38.561Z,70.23
2022-10-18T00:27:05.344Z,70.20
2022-10-18T00:29:32.068Z,70.07
2022-10-18T00:31:58.889Z,70.09
2022-10-18T00:34:25.655Z,70.23
2022-10-18T00:36:52.376Z,70.34
2022-10-18T00:39:20.831Z,70.47
2022-10-18T00:41:49.068Z,70.53
2022-10-18T00:44:15.745Z,70.68
2022-10-18T00:46:45.197Z,70.71
2022-10-18T00:49:16.346Z,71.37
2022-10-18T00:51:46.927Z,70.96
2022-10-18T00:54:16.554Z,71.07
2022-10-18T00:56:45.042Z,70.87
2022-10-18T00:59:14.837Z,71.18
2022-10-18T01:01:41.779Z,71.31
2022-10-18T01:04:08.672Z,71.43
2022-10-18T01:06:52.067Z,71.58
2022-10-18T01:09:24.352Z,71.39
2022-10-18T01:11:54.218Z,71.47
2022-10-18T01:14:34.310Z,71.52
2022-10-18T01:17:07.732Z,71.23
2022-10-18T01:20:01.893Z,71.41
2022-10-18T01:22:44.268Z,70.83
2022-10-18T01:26:09.542Z,70.86
2022-10-18T01:28:52.623Z,70.83
2022-10-18T01:31:23.534Z,70.64
2022-10-18T01:33:58.742Z,70.37
2022-10-18T01:36:40.581Z,70.35
2022-10-18T01:39:11.580Z,70.04
2022-10-18T01:41:41.448Z,69.86
2022-10-18T01:44:12.953Z,69.66
2022-10-18T01:46:41.884Z,69.48
2022-10-18T01:49:08.920Z,69.30
2022-10-18T01:51:36.033Z,68.91
2022-10-18T01:54:03.226Z,68.87
2022-10-18T01:56:42.149Z,68.86
2022-10-18T01:59:15.100Z,68.75
2022-10-18T02:01:54.112Z,68.54
2022-10-18T02:04:30.377Z,68.31
2022-10-18T02:07:12.932Z,68.30
2022-10-18T02:09:46.886Z,67.80
2022-10-18T02:12:15.768Z,67.77
2022-10-18T02:14:45.684Z,67.79
2022-10-18T02:17:13.220Z,67.63
2022-10-18T02:19:44.611Z,67.43
2022-10-18T02:22:12.904Z,67.48
2022-10-18T02:24:45.232Z,67.27
2022-10-18T02:27:12.965Z,67.22
2022-10-18T02:29:41.871Z,67.41
2022-10-18T02:32:19.754Z,67.18
2022-10-18T02:34:54.173Z,67.09
2022-10-18T02:37:21.182Z,67.22
2022-10-18T02:39:50.961Z,66.83
2022-10-18T02:42:17.710Z,66.90
2022-10-18T02:44:45.828Z,66.68
2022-10-18T02:47:12.941Z,66.43
2022-10-18T02:49:40.005Z,66.38
2022-10-18T02:52:07.395Z,66.45
2022-10-18T02:54:34.143Z,66.47
2022-10-18T02:57:00.922Z,66.44
2022-10-18T02:59:27.766Z,66.07
2022-10-18T03:01:54.619Z,66.42
2022-10-18T03:04:21.382Z,66.61
2022-10-18T03:06:48.227Z,66.54
2022-10-18T03:09:14.944Z,66.81
2022-10-18T03:11:41.768Z,66.65
2022-10-18T03:14:08.536Z,66.81
2022-10-18T03:16:35.244Z,66.63
2022-10-18T03:19:02.049Z,66.80
2022-10-18T03:21:28.820Z,66.42
2022-10-18T03:23:56.200Z,66.30
2022-10-18T03:26:22.904Z,66.31
2022-10-18T03:28:49.724Z,66.32
2022-10-18T03:31:16.644Z,66.39
2022-10-18T03:33:43.420Z,66.28
2022-10-18T03:36:10.396Z,66.11
2022-10-18T03:38:37.125Z,65.99
2022-10-18T03:41:04.055Z,66.02
2022-10-18T03:43:30.907Z,66.18
2022-10-18T03:45:57.664Z,66.36
2022-10-18T03:48:24.796Z,66.39
2022-10-18T03:50:52.093Z,66.43
2022-10-18T03:53:18.809Z,66.33
2022-10-18T03:55:50.125Z,66.35
2022-10-18T03:58:16.951Z,66.56
2022-10-18T04:00:43.737Z,66.30
2022-10-18T04:03:10.577Z,66.50
2022-10-18T04:05:37.484Z,66.28
2022-10-18T04:08:04.812Z,66.07
2022-10-18T04:10:31.516Z,66.24
2022-10-18T04:12:58.371Z,66.26
2022-10-18T04:15:25.080Z,65.99
2022-10-18T04:17:51.794Z,65.96
2022-10-18T04:20:18.581Z,65.72
2022-10-18T04:22:46.310Z,65.87
2022-10-18T04:25:12.993Z,65.84
2022-10-18T04:27:39.784Z,65.54
2022-10-18T04:30:07.047Z,65.42
2022-10-18T04:32:35.469Z,65.27
2022-10-18T04:35:03.301Z,65.25
2022-10-18T04:37:30.338Z,64.73
2022-10-18T04:39:57.405Z,64.61
2022-10-18T04:42:24.311Z,64.37
2022-10-18T04:44:51.330Z,64.31
2022-10-18T04:47:18.255Z,64.07
2022-10-18T04:49:45.088Z,63.78
2022-10-18T04:52:11.982Z,63.20
2022-10-18T04:54:38.817Z,62.96
2022-10-18T04:57:05.838Z,62.52
2022-10-18T04:59:32.658Z,62.62
2022-10-18T05:01:59.495Z,62.53
2022-10-18T05:04:26.339Z,62.37
2022-10-18T05:06:53.055Z,62.21
2022-10-18T05:09:22.341Z,62.09
2022-10-18T05:11:49.217Z,61.84
2022-10-18T05:14:16.140Z,61.74
2022-10-18T05:16:42.950Z,61.82
2022-10-18T05:19:10.266Z,61.68
2022-10-18T05:21:36.996Z,61.20
2022-10-18T05:24:04.023Z,61.00
2022-10-18T05:26:30.822Z,61.16
2022-10-18T05:28:57.673Z,61.10
2022-10-18T05:31:24.448Z,61.30
2022-10-18T05:33:51.239Z,61.28
2022-10-18T05:36:17.916Z,61.03
2022-10-18T05:38:47.976Z,60.80
2022-10-18T05:41:15.059Z,60.75
2022-10-18T05:43:41.747Z,60.90
2022-10-18T05:46:14.559Z,60.59
2022-10-18T05:48:44.253Z,60.63
2022-10-18T05:51:11.426Z,60.82
2022-10-18T05:53:38.426Z,60.79
2022-10-18T05:56:06.722Z,60.97
2022-10-18T05:58:33.999Z,60.67
2022-10-18T06:01:05.682Z,60.61
2022-10-18T06:03:33.345Z,60.47
2022-10-18T06:06:06.708Z,60.93
2022-10-18T06:08:34.328Z,60.78
2022-10-18T06:11:07.459Z,60.54
2022-10-18T06:13:34.471Z,60.48
2022-10-18T06:16:01.166Z,60.94
2022-10-18T06:18:28.175Z,60.96
2022-10-18T06:20:59.311Z,60.95
2022-10-18T06:23:29.287Z,60.97
2022-10-18T06:26:03.678Z,60.98
2022-10-18T06:28:30.979Z,60.97
2022-10-18T06:30:58.525Z,61.23
2022-10-18T06:33:26.827Z,61.16
2022-10-18T06:35:59.252Z,61.18
2022-10-18T06:38:26.798Z,61.06
2022-10-18T06:40:54.851Z,61.02
2022-10-18T06:43:21.907Z,61.53
2022-10-18T06:45:49.645Z,61.65
2022-10-18T06:50:58.356Z,61.70
2022-10-18T06:53:30.721Z,61.76
2022-10-18T06:56:01.859Z,61.76
2022-10-18T06:58:29.853Z,61.82
2022-10-18T07:00:57.383Z,62.07
2022-10-18T07:03:24.172Z,62.31
2022-10-18T07:05:51.225Z,62.51
2022-10-18T07:08:18.740Z,62.63
2022-10-18T07:10:53.269Z,62.81
2022-10-18T07:13:32.096Z,62.97
2022-10-18T07:16:17.398Z,63.12
2022-10-18T07:18:50.510Z,63.35
2022-10-18T07:21:20.287Z,63.86
2022-10-18T07:23:47.498Z,63.46
2022-10-18T07:26:21.707Z,63.62
2022-10-18T07:28:55.432Z,63.58
2022-10-18T07:31:23.776Z,63.58
2022-10-18T07:33:50.822Z,63.43
2022-10-18T07:36:18.371Z,63.12
2022-10-18T07:38:45.331Z,62.97
2022-10-18T07:41:13.256Z,62.79
2022-10-18T07:43:51.703Z,62.53
2022-10-18T07:46:20.220Z,62.62
2022-10-18T07:48:46.984Z,62.34
2022-10-18T07:51:14.591Z,62.20
2022-10-18T07:53:41.314Z,61.85
2022-10-18T07:56:16.183Z,61.41
2022-10-18T07:58:47.808Z,61.71
2022-10-18T08:01:15.737Z,61.50
2022-10-18T08:03:43.766Z,61.34
2022-10-18T08:06:12.139Z,61.58
2022-10-18T08:08:40.034Z,61.62
2022-10-18T08:11:10.680Z,61.30
2022-10-18T08:13:37.521Z,61.23
2022-10-18T08:16:10.304Z,61.39
2022-10-18T08:18:37.658Z,61.09
2022-10-18T08:21:06.721Z,61.85
2022-10-18T08:23:34.364Z,61.92
2022-10-18T08:26:02.623Z,62.09
2022-10-18T08:28:29.791Z,62.29
2022-10-18T08:30:56.788Z,61.94
2022-10-18T08:33:23.982Z,61.53
2022-10-18T08:35:58.625Z,61.89
2022-10-18T08:38:25.676Z,61.66
2022-10-18T08:40:52.701Z,61.41
2022-10-18T08:43:28.792Z,61.12
2022-10-18T08:45:56.201Z,60.80
2022-10-18T08:48:31.307Z,60.70
2022-10-18T08:50:58.769Z,60.17
2022-10-18T08:53:39.229Z,60.04
2022-10-18T08:56:14.912Z,60.11
2022-10-18T08:58:46.656Z,60.51
2022-10-18T09:01:31.772Z,60.32
2022-10-18T09:04:20.332Z,60.56
2022-10-18T09:07:27.207Z,60.03
2022-10-18T09:10:05.440Z,60.51
2022-10-18T09:13:04.155Z,60.29
2022-10-18T09:15:45.064Z,59.64
2022-10-18T09:18:37.460Z,59.22
2022-10-18T09:21:42.060Z,58.22
2022-10-18T09:24:34.758Z,57.20
2022-10-18T09:27:15.225Z,56.54
2022-10-18T09:29:59.351Z,55.73
2022-10-18T09:32:55.590Z,54.85
2022-10-18T09:35:27.517Z,54.66
2022-10-18T09:38:03.218Z,53.20
2022-10-18T09:40:36.601Z,53.04
2022-10-18T09:43:12.107Z,53.07
2022-10-18T09:45:44.944Z,52.38
2022-10-18T09:48:28.124Z,52.34
2022-10-18T09:51:21.866Z,51.74
2022-10-18T09:53:57.452Z,51.35
2022-10-18T09:56:36.678Z,50.88
2022-10-18T09:59:15.925Z,50.36
2022-10-18T10:01:43.158Z,51.02
2022-10-18T10:04:09.855Z,50.25
2022-10-18T10:06:39.128Z,50.72
2022-10-18T10:09:17.040Z,51.05
2022-10-18T10:11:51.437Z,51.51
2022-10-18T10:14:26.099Z,51.59
2022-10-18T10:17:21.628Z,52.44
2022-10-18T10:20:04.064Z,52.53
2022-10-18T10:22:41.322Z,52.76
2022-10-18T10:25:21.417Z,53.51
2022-10-18T10:27:48.420Z,52.98
2022-10-18T10:30:30.410Z,53.27
2022-10-18T10:32:58.227Z,53.25
2022-10-18T10:35:53.944Z,52.67
2022-10-18T10:38:31.188Z,52.34
2022-10-18T10:40:59.192Z,52.66
2022-10-18T10:43:40.004Z,52.52
2022-10-18T10:46:09.073Z,52.88
2022-10-18T10:49:21.701Z,53.46
2022-10-18T10:51:45.225Z,53.56
2022-10-18T10:54:20.916Z,53.24
2022-10-18T10:56:58.882Z,53.32
2022-10-18T10:59:30.734Z,53.58
2022-10-18T11:02:17.890Z,53.56
2022-10-18T11:04:49.688Z,53.76
2022-10-18T11:07:38.248Z,53.59
2022-10-18T11:10:12.817Z,53.54
2022-10-18T11:12:43.812Z,53.60
2022-10-18T11:15:11.943Z,54.36
2022-10-18T11:18:04.919Z,53.99
2022-10-18T11:20:47.440Z,54.59
2022-10-18T11:23:16.205Z,53.72
2022-10-18T11:26:01.186Z,54.06
2022-10-18T11:28:37.142Z,53.85
2022-10-18T11:31:19.229Z,53.76
2022-10-18T11:34:16.590Z,53.80
2022-10-18T11:36:57.973Z,54.10
2022-10-18T11:40:16.208Z,53.63
2022-10-18T11:42:58.217Z,53.45
2022-10-18T11:45:28.113Z,53.90
2022-10-18T11:48:41.920Z,53.83
2022-10-18T11:51:34.390Z,53.20
2022-10-18T11:54:17.338Z,52.86
2022-10-18T11:56:50.272Z,53.11
2022-10-18T11:59:26.106Z,52.30
2022-10-18T12:02:20.679Z,51.47
2022-10-18T12:04:58.422Z,49.84
2022-10-18T12:07:50.004Z,48.64
2022-10-18T12:10:31.487Z,46.24
2022-10-18T12:13:14.638Z,44.83
2022-10-18T12:15:41.739Z,44.57
2022-10-18T12:18:15.422Z,44.33
2022-10-18T12:20:46.434Z,42.85
2022-10-18T12:23:30.648Z,44.55
2022-10-18T12:26:04.022Z,45.08
2022-10-18T12:28:33.537Z,46.16
2022-10-18T12:31:14.212Z,46.59
2022-10-18T12:33:45.932Z,47.48
2022-10-18T12:36:21.725Z,47.93
2022-10-18T12:38:54.209Z,48.58
2022-10-18T12:41:26.609Z,48.93
2022-10-18T12:44:04.633Z,48.90
2022-10-18T12:46:51.194Z,49.55
2022-10-18T12:49:27.783Z,50.00
2022-10-18T12:52:00.271Z,49.89
2022-10-18T12:54:31.670Z,50.04
2022-10-18T12:57:00.095Z,49.96
2022-10-18T12:59:26.948Z,49.99
2022-10-18T13:01:53.762Z,50.64
2022-10-18T13:04:29.662Z,51.07
2022-10-18T13:07:05.191Z,50.89
2022-10-18T13:10:02.938Z,51.69
2022-10-18T13:12:32.007Z,51.33
2022-10-18T13:15:34.147Z,51.20
2022-10-18T13:18:18.308Z,52.29
2022-10-18T13:20:57.690Z,52.69
2022-10-18T13:23:59.550Z,52.44
2022-10-18T13:26:38.564Z,52.68
2022-10-18T13:29:42.299Z,52.51
2022-10-18T13:32:29.222Z,52.61
2022-10-18T13:34:56.618Z,52.35
2022-10-18T13:37:25.784Z,51.95
2022-10-18T13:40:25.834Z,52.86
2022-10-18T13:42:52.592Z,52.62
2022-10-18T13:45:31.820Z,53.05
2022-10-18T13:48:29.606Z,52.98
2022-10-18T13:51:12.198Z,53.17
2022-10-18T13:54:02.279Z,53.15
2022-10-18T13:56:52.321Z,53.86
2022-10-18T13:59:41.018Z,54.07
2022-10-18T14:02:36.476Z,55.12
2022-10-18T14:05:24.955Z,55.13
2022-10-18T14:07:58.869Z,55.32
2022-10-18T14:10:57.491Z,57.47
2022-10-18T14:13:34.009Z,58.60
2022-10-18T14:16:10.905Z,60.64
2022-10-18T14:18:42.829Z,62.37
2022-10-18T14:21:27.399Z,63.86
2022-10-18T14:23:57.746Z,63.50
2022-10-18T14:26:24.521Z,64.83
2022-10-18T14:29:16.876Z,67.03
2022-10-18T14:31:53.511Z,68.08
2022-10-18T14:34:22.169Z,68.87
2022-10-18T14:36:49.770Z,70.36
2022-10-18T14:39:29.301Z,71.18
2022-10-18T14:41:58.374Z,72.17
2022-10-18T14:44:30.388Z,73.04
2022-10-18T14:47:16.699Z,74.22
2022-10-18T14:49:47.872Z,74.25
2022-10-18T14:52:18.512Z,74.87
2022-10-18T14:54:45.734Z,75.92
2022-10-18T14:57:19.917Z,76.72
2022-10-18T14:59:52.006Z,77.24
2022-10-18T15:02:39.298Z,77.96
2022-10-18T15:05:09.213Z,77.90
2022-10-18T15:07:36.231Z,78.69
2022-10-18T15:10:05.573Z,78.19
2022-10-18T15:12:36.827Z,78.84
2022-10-18T15:15:31.461Z,78.78
2022-10-18T15:17:59.854Z,79.35
2022-10-18T15:20:31.711Z,79.18
2022-10-18T15:23:23.479Z,79.48
2022-10-18T15:25:52.272Z,79.57
2022-10-18T15:28:28.716Z,80.32
2022-10-18T15:30:58.368Z,80.54
2022-10-18T15:33:27.490Z,80.31
2022-10-18T15:35:55.026Z,80.39
2022-10-18T15:38:24.821Z,79.83
2022-10-18T15:40:51.789Z,80.25
2022-10-18T15:43:24.823Z,79.94
2022-10-18T15:45:58.818Z,79.92
2022-10-18T15:48:35.929Z,80.47
2022-10-18T15:51:05.584Z,81.20
2022-10-18T15:53:45.532Z,81.77
2022-10-18T15:56:34.663Z,81.77
2022-10-18T15:59:04.775Z,81.96
2022-10-18T16:01:34.614Z,82.15
2022-10-18T16:04:02.113Z,82.86
2022-10-18T16:06:29.268Z,82.27
2022-10-18T16:08:56.057Z,82.80
2022-10-18T16:11:26.083Z,82.94
2022-10-18T16:13:56.449Z,83.72
2022-10-18T16:16:28.921Z,83.73
2022-10-18T16:18:57.016Z,84.21
2022-10-18T16:21:27.686Z,84.43
2022-10-18T16:23:54.889Z,85.54
2022-10-18T16:26:22.424Z,85.21
2022-10-18T16:28:50.079Z,85.39
2022-10-18T16:31:19.472Z,85.64
2022-10-18T16:33:47.140Z,85.84
2022-10-18T16:36:19.295Z,85.83
2022-10-18T16:38:46.516Z,85.55
2022-10-18T16:41:16.346Z,85.86
2022-10-18T16:43:48.124Z,85.64
2022-10-18T16:46:18.022Z,85.99
2022-10-18T16:48:45.202Z,85.98
2022-10-18T16:51:12.358Z,85.17
2022-10-18T16:53:39.577Z,85.43
2022-10-18T16:56:13.703Z,85.30
2022-10-18T16:58:40.543Z,85.40
2022-10-18T17:01:09.045Z,85.43
2022-10-18T17:03:36.222Z,85.30
2022-10-18T17:06:03.238Z,85.06
2022-10-18T17:08:30.083Z,84.71
2022-10-18T17:11:00.088Z,84.60
2022-10-18T17:13:27.135Z,84.51
2022-10-18T17:15:54.086Z,84.60
2022-10-18T17:18:26.527Z,84.49
2022-10-18T17:20:54.064Z,84.53
2022-10-18T17:23:20.792Z,84.43
2022-10-18T17:25:59.127Z,84.26
2022-10-18T17:28:35.447Z,84.15
2022-10-18T17:31:02.212Z,84.39
2022-10-18T17:33:28.893Z,84.40
2022-10-18T17:35:55.649Z,84.41
2022-10-18T17:38:22.335Z,84.58
2022-10-18T17:40:49.073Z,84.81
2022-10-18T17:43:15.867Z,84.47
2022-10-18T17:45:53.636Z,84.47
2022-10-18T17:48:20.804Z,84.56
2022-10-18T17:50:47.501Z,84.17
2022-10-18T17:53:14.415Z,84.15
2022-10-18T17:55:41.324Z,84.66
2022-10-18T17:58:08.083Z,84.30
2022-10-18T18:00:34.826Z,84.55
2022-10-18T18:03:02.085Z,84.62
2022-10-18T18:05:33.969Z,84.40
2022-10-18T18:08:03.867Z,84.74
2022-10-18T18:10:33.642Z,84.26
2022-10-18T18:13:01.066Z,84.69
2022-10-18T18:15:28.495Z,84.69
2022-10-18T18:17:57.397Z,84.71
2022-10-18T18:20:25.253Z,84.92
2022-10-18T18:22:52.281Z,84.59
2022-10-18T18:25:19.028Z,84.89
2022-10-18T18:27:45.763Z,84.55
2022-10-18T18:30:12.618Z,84.42
2022-10-18T18:32:39.474Z,84.01
2022-10-18T18:35:06.430Z,84.17
2022-10-18T18:37:33.148Z,83.90
2022-10-18T18:39:59.936Z,83.88
2022-10-18T18:42:26.650Z,83.94
2022-10-18T18:44:53.369Z,83.93
2022-10-18T18:47:22.052Z,83.71
2022-10-18T18:49:49.365Z,83.71
2022-10-18T18:52:16.100Z,83.47
2022-10-18T18:54:42.937Z,83.43
2022-10-18T18:57:09.682Z,83.59
2022-10-18T18:59:36.376Z,83.51
2022-10-18T19:02:03.174Z,83.54
2022-10-18T19:04:30.009Z,83.57
2022-10-18T19:06:56.712Z,83.46
2022-10-18T19:09:24.116Z,83.50
2022-10-18T19:11:53.414Z,83.46
2022-10-18T19:16:54.573Z,83.60
2022-10-18T19:19:24.300Z,83.86
2022-10-18T19:21:54.290Z,84.14
2022-10-18T19:24:22.021Z,85.26
2022-10-18T19:26:51.682Z,85.02
2022-10-18T19:29:23.417Z,85.57
2022-10-18T19:31:52.065Z,85.60
2022-10-18T19:34:21.448Z,85.60
2022-10-18T19:36:49.164Z,85.52
2022-10-18T19:39:21.909Z,85.01
2022-10-18T19:41:51.156Z,84.79
2022-10-18T19:44:19.530Z,84.67
2022-10-18T19:46:47.391Z,84.41
2022-10-18T19:49:14.512Z,84.17
2022-10-18T19:51:41.744Z,84.08
2022-10-18T19:54:09.692Z,83.81
2022-10-18T19:56:36.564Z,84.11
2022-10-18T19:59:04.882Z,84.05
2022-10-18T20:01:31.807Z,84.02
2022-10-18T20:03:59.187Z,83.92
2022-10-18T20:06:26.370Z,84.08
2022-10-18T20:08:54.184Z,83.97
2022-10-18T20:11:24.341Z,83.83
2022-10-18T20:13:51.980Z,84.59
2022-10-18T20:16:25.451Z,84.31
2022-10-18T20:19:01.905Z,84.17
2022-10-18T20:21:32.740Z,84.47
2022-10-18T20:23:59.560Z,84.39
2022-10-18T20:26:26.471Z,84.36
2022-10-18T20:28:59.518Z,84.02
2022-10-18T20:31:29.783Z,83.92
2022-10-18T20:34:01.176Z,83.91
2022-10-18T20:36:30.533Z,84.14
2022-10-18T20:38:58.712Z,84.30
2022-10-18T20:41:26.903Z,84.39
2022-10-18T20:43:55.563Z,84.27
2022-10-18T20:46:23.348Z,84.09
2022-10-18T20:48:54.116Z,84.08
2022-10-18T20:51:22.247Z,83.91
2022-10-18T20:53:49.756Z,83.95
2022-10-18T20:56:22.664Z,83.78
2022-10-18T20:58:51.493Z,83.85
2022-10-18T21:01:23.666Z,83.48
2022-10-18T21:03:52.765Z,84.00
2022-10-18T21:06:22.866Z,83.62
2022-10-18T21:08:58.087Z,83.57
2022-10-18T21:11:26.057Z,83.67
2022-10-18T21:13:59.176Z,83.64
2022-10-18T21:16:26.557Z,83.52
2022-10-18T21:18:53.850Z,83.38
2022-10-18T21:21:23.296Z,83.38
2022-10-18T21:23:51.127Z,83.24
2022-10-18T21:26:23.233Z,83.36
2022-10-18T21:28:52.182Z,83.36
2022-10-18T21:31:24.544Z,83.29
2022-10-18T21:33:56.611Z,83.28
2022-10-18T21:36:24.192Z,83.43
2022-10-18T21:38:51.475Z,83.46
2022-10-18T21:41:20.028Z,82.93
2022-10-18T21:43:55.908Z,83.08
2022-10-18T21:46:27.011Z,83.21
2022-10-18T21:48:55.467Z,83.38
2022-10-18T21:51:24.479Z,83.27
2022-10-18T21:53:53.599Z,83.13
2022-10-18T21:56:28.595Z,83.37
2022-10-18T21:58:56.188Z,83.42
2022-10-18T22:01:24.466Z,82.99
2022-10-18T22:03:53.022Z,83.25
2022-10-18T22:06:21.361Z,83.24
2022-10-18T22:08:56.367Z,82.65
2022-10-18T22:11:27.076Z,83.07
2022-10-18T22:13:54.227Z,83.07
2022-10-18T22:16:21.733Z,83.09
2022-10-18T22:18:49.872Z,82.81
2022-10-18T22:21:19.153Z,82.82
2022-10-18T22:23:48.880Z,83.07
2022-10-18T22:26:27.621Z,82.60
2022-10-18T22:29:02.383Z,82.46
2022-10-18T22:31:32.622Z,82.62
2022-10-18T22:34:01.754Z,82.32
2022-10-18T22:36:28.917Z,82.38
2022-10-18T22:38:55.983Z,81.76
2022-10-18T22:41:22.889Z,81.48
2022-10-18T22:43:53.555Z,81.56
2022-10-18T22:46:21.003Z,81.42
2022-10-18T22:48:48.623Z,81.33
2022-10-18T22:51:16.079Z,80.80
2022-10-18T22:53:42.859Z,80.64
2022-10-18T22:56:13.120Z,80.45
2022-10-18T22:58:40.051Z,80.72
2022-10-18T23:01:09.832Z,80.67
2022-10-18T23:03:37.381Z,80.23
2022-10-18T23:06:06.025Z,80.12
2022-10-18T23:08:33.408Z,79.98
2022-10-18T23:11:00.374Z,80.19
2022-10-18T23:13:28.400Z,79.32
2022-10-18T23:16:04.361Z,79.61
2022-10-18T23:18:32.592Z,79.60
2022-10-18T23:21:13.208Z,79.62
2022-10-18T23:23:42.532Z,79.79
2022-10-18T23:26:14.591Z,78.64
2022-10-18T23:28:44.192Z,78.37
2022-10-18T23:31:18.083Z,78.58
2022-10-18T23:33:46.825Z,77.60
2022-10-18T23:36:13.909Z,78.21
2022-10-18T23:38:41.361Z,77.85
2022-10-18T23:41:10.094Z,77.51
2022-10-18T23:43:36.792Z,77.19
2022-10-18T23:46:04.343Z,77.77
2022-10-18T23:48:31.339Z,78.07
2022-10-18T23:50:58.258Z,77.96
2022-10-18T23:53:25.124Z,78.17
2022-10-18T23:55:57.259Z,77.58
2022-10-18T23:58:25.131Z,77.96
